Floral Park, NY (11004)

08:07 EST le 27 novembre 2014 (GMT -0500)
Floral Park, The Original 11001 Wx Site | Change Station
CLOSE
Current Station
Stations météorologiques personnelles
Location: Floral Park, NY
Altitude: 103 ft
Stations météo à proximité

Alt. 103 ft 40.73 °N, 73.71 °W | Updated 1 second ago

Couvert
Couvert
35.9 ° F
Paraît 33 ° F
N
4.0
Vent Variable Vent de Nord
Gusts 9.0 mph

Aujourd'hui
Haut(e) -- | Bas -- ° F
--% Risque de précip.
Hier
Haut(e) -- | Bas -- ° F
Precip. -- pouce
6:55 AM 4:29 PM
Lune montante, 29% visible
Pression 29.98 pouce
Visibilité 10.0 Miles terrestres
Nuages Peu 2200 ft
Nuages épars 3700 ft
Nuageux 6000 ft
Refroidissement éolien 33 ° F
Point de rosée 32 ° F
Humidité 87%
Précipitations 0.01 pouce
Profondeur de la couche neigeuse Non disponible.
UV 0 sur 12
Pollen .10 sur 12
Qualité de l'air Non disponible.
Flu Activity Non disponible.
METAR KJFK 271251Z 35008KT 10SM FEW022 SCT037 BKN060 03/M01 A2998 RMK AO2 RAB10E19 SLP151 P0000 T00331006 $

More Conditions Fewer Conditions

Pression 29.98 pouce
Visibilité 10.0 Miles terrestres
Nuages Peu 2200 ft
Nuages épars 3700 ft
Nuageux 6000 ft
Refroidissement éolien 33 ° F
Point de rosée 32 ° F
Humidité 87%
Précipitations 0.01 pouce
Profondeur de la couche neigeuse Non disponible.
UV 0 sur 12
Pollen .10 sur 12
Qualité de l'air Non disponible.
Flu Activity Non disponible.
METAR KJFK 271251Z 35008KT 10SM FEW022 SCT037 BKN060 03/M01 A2998 RMK AO2 RAB10E19 SLP151 P0000 T00331006 $

More Conditions Fewer Conditions

10-Day Weather Forecast

Almanac

Astronomie

Nov. 27, 2014 Lever Coucher
Temps réel
Crépuscule civil
Crépuscule nautique
Crépuscule astronomique
Lune
Durée de lumière visible
Longueur du jour
Tomorrow will be .
, % of the Moon is Illuminated

Extrêmes aujourd'hui

State Highs State Lows

Community

WunderPhotos

Upload Photos

1,773,990 Photos téléchargées !

WunderBlogs® & News

Nearby

Qualité de l'air

  Qualité de l'air Indice de la qualité de l'air Polluant
Not available.

Épaisseur de neige

Station Depth Altitude

Activité sismique

Ville Distance Mag. Time & Date
Minimum magnitude displayed is 2.5.

Températures des eaux côtières

Lieu Température

Stations météo à proximité